KVPC

Details ICAO KVPC (VPC)
Name CARTERSVILLE
Region United States
Timezone America/New_York (UTC-5.0)
Plans Departing 17
Arriving 13
Stats Elevation 759 ft / 231 m (AMSL)
Location 34.123100° -84.848700°
Runways 1
Magnetic Variation 4.954° W
Sunrise 2018-12-13 12:37:50 UTC / 2018-12-13 07:37:50 Local
Sunset 2018-12-13 22:32:10 UTC / 2018-12-13 17:32:10 Local
Advertisement - Login to hide

Runways

ID Width Length Bearing (true/mag) Surface Threshold Overrun Markings Lighting
01 100 ft / 30 m 5,776 ft / 1,761 m 3.47° / 8.43° ASPHALT 740 ft / 226 m 0 ft / 0 m APP EDGE THRESHOLD
19 100 ft / 30 m 5,776 ft / 1,761 m 183.47° / 188.43° ASPHALT 0 ft / 0 m 0 ft / 0 m APP EDGE THRESHOLD REIL-OMNI

Approach Navaids

Runway Type Ident Frequency Range Bearing (true/mag) Slope Elevation
19 DME IVPC 110.35 MHz 18 nm / 33 km - - 759 ft / 231 m (AMSL)
19 LOC-LOC IVPC 110.35 MHz 18 nm / 33 km 183.47° / 188.43° - 759 ft / 231 m (AMSL)

Map

Weather


0- 5 10 15 20 25 30 35+ Temperature / °C

Clouds and Precipitation
Forecast for 2018-12-13 18:00 UTC. Updated 2 hours ago

Ground ~20,000 ft ~40,000 ft Winds

METAR

KVPC 131653Z AUTO VRB05KT 10SM CLR 09/01 A3022 RMK AO2 SLP229 T00890011

TAF

Not found

Frequencies

Unicom 123.05 MHz CTAF/UNICOM
Recorded 120.52 MHz ASOS
Approach 121.00 MHz ATLANTA APP/DEP
Warning: Do not use this data for real-world aviation or navigation. No guarantee of current accuracy is given.